KLCI/LCI METAR and TAF weather

Enter ICAO airport designator
Station Type Date Time Source
KLCI METAR 2020/07/15 09:26 UTC NOAA

KLCI 150926Z AUTO 06009KT 10SM FEW029 SCT038 BKN060 18/15 A3018 RMK AO2


Station Type Date Time Source
KLCI Decoded METAR 2020/07/15 09:26 UTC NOAA

Laconia, Laconia Municipal Airport, NH, United States (KLCI) 43-34N 071-25W
Jul 15, 2020 - 05:26 AM EDT / 2020.07.15 0926 UTC
Wind: from the ENE (060 degrees) at 10 MPH (9 KT):0
Visibility: 10 mile(s):0
Sky conditions: mostly cloudy
Temperature: 64 F (18 C)
Dew Point: 59 F (15 C)
Relative Humidity: 82%
Pressure (altimeter): 30.18 in. Hg (1022 hPa)
ob: KLCI 150926Z AUTO 06009KT 10SM FEW029 SCT038 BKN060 18/15 A3018 RMK AO2
cycle: 9

Station Type Date Time Source
KLCI TAF UTC NOAA

Error!

Example: see airport list